sensor_id;sensor_type;location;lat;lon;timestamp;P1;durP1;ratioP1;P2;durP2;ratioP2
59338;SDS011;45117;50.960;5.500;2023-02-01T00:02:13;19.25;;;6.47;;
59338;SDS011;45117;50.960;5.500;2023-02-01T00:04:39;26.05;;;6.88;;
59338;SDS011;45117;50.960;5.500;2023-02-01T00:07:06;23.55;;;6.32;;
59338;SDS011;45117;50.960;5.500;2023-02-01T00:09:32;18.20;;;5.38;;
59338;SDS011;45117;50.960;5.500;2023-02-01T00:11:59;22.42;;;5.57;;
59338;SDS011;45117;50.960;5.500;2023-02-01T00:14:27;22.27;;;5.65;;
59338;SDS011;45117;50.960;5.500;2023-02-01T00:16:53;17.70;;;5.47;;
59338;SDS011;45117;50.960;5.500;2023-02-01T00:19:21;19.15;;;5.80;;
59338;SDS011;45117;50.960;5.500;2023-02-01T00:21:47;23.45;;;5.68;;
59338;SDS011;45117;50.960;5.500;2023-02-01T00:24:14;19.52;;;6.57;;
59338;SDS011;45117;50.960;5.500;2023-02-01T00:26:41;17.48;;;5.68;;
59338;SDS011;45117;50.960;5.500;2023-02-01T00:29:10;21.70;;;6.82;;
59338;SDS011;45117;50.960;5.500;2023-02-01T00:31:38;28.63;;;7.40;;
59338;SDS011;45117;50.960;5.500;2023-02-01T00:34:04;24.08;;;7.82;;
59338;SDS011;45117;50.960;5.500;2023-02-01T00:36:32;27.33;;;7.78;;
59338;SDS011;45117;50.960;5.500;2023-02-01T00:38:59;27.02;;;8.00;;
59338;SDS011;45117;50.960;5.500;2023-02-01T00:41:26;22.42;;;8.43;;
59338;SDS011;45117;50.960;5.500;2023-02-01T00:43:52;23.73;;;8.15;;
59338;SDS011;45117;50.960;5.500;2023-02-01T00:46:19;31.02;;;8.88;;
59338;SDS011;45117;50.960;5.500;2023-02-01T00:48:46;30.70;;;9.60;;
59338;SDS011;45117;50.960;5.500;2023-02-01T00:51:14;27.77;;;9.27;;
59338;SDS011;45117;50.960;5.500;2023-02-01T00:53:44;35.65;;;9.82;;
59338;SDS011;45117;50.960;5.500;2023-02-01T00:56:11;29.45;;;9.60;;
59338;SDS011;45117;50.960;5.500;2023-02-01T00:58:38;23.73;;;9.70;;
59338;SDS011;45117;50.960;5.500;2023-02-01T01:01:05;25.05;;;9.30;;
59338;SDS011;45117;50.960;5.500;2023-02-01T01:03:34;26.85;;;9.57;;
59338;SDS011;45117;50.960;5.500;2023-02-01T01:06:03;31.98;;;10.52;;
59338;SDS011;45117;50.960;5.500;2023-02-01T01:08:31;35.55;;;9.93;;
59338;SDS011;45117;50.960;5.500;2023-02-01T01:10:59;30.25;;;9.13;;
59338;SDS011;45117;50.960;5.500;2023-02-01T01:13:30;29.20;;;11.25;;
59338;SDS011;45117;50.960;5.500;2023-02-01T01:15:59;21.42;;;8.82;;
59338;SDS011;45117;50.960;5.500;2023-02-01T01:18:27;28.80;;;9.15;;
59338;SDS011;45117;50.960;5.500;2023-02-01T01:20:54;30.35;;;8.82;;
59338;SDS011;45117;50.960;5.500;2023-02-01T01:23:20;31.02;;;9.98;;
59338;SDS011;45117;50.960;5.500;2023-02-01T01:25:47;25.95;;;9.23;;
59338;SDS011;45117;50.960;5.500;2023-02-01T01:28:14;27.00;;;8.55;;
59338;SDS011;45117;50.960;5.500;2023-02-01T01:30:41;27.00;;;8.88;;
59338;SDS011;45117;50.960;5.500;2023-02-01T01:33:07;19.98;;;7.50;;
59338;SDS011;45117;50.960;5.500;2023-02-01T01:35:34;30.98;;;8.57;;
59338;SDS011;45117;50.960;5.500;2023-02-01T01:38:00;29.65;;;8.85;;
59338;SDS011;45117;50.960;5.500;2023-02-01T01:40:27;28.10;;;9.35;;
59338;SDS011;45117;50.960;5.500;2023-02-01T01:42:55;30.73;;;9.68;;
59338;SDS011;45117;50.960;5.500;2023-02-01T01:45:24;23.70;;;7.95;;
59338;SDS011;45117;50.960;5.500;2023-02-01T01:47:52;28.45;;;8.52;;
59338;SDS011;45117;50.960;5.500;2023-02-01T01:50:22;22.77;;;8.30;;
59338;SDS011;45117;50.960;5.500;2023-02-01T01:52:51;27.50;;;8.13;;
59338;SDS011;45117;50.960;5.500;2023-02-01T01:55:20;25.73;;;8.00;;
59338;SDS011;45117;50.960;5.500;2023-02-01T01:57:50;28.83;;;8.27;;
59338;SDS011;45117;50.960;5.500;2023-02-01T02:00:22;22.35;;;8.48;;
59338;SDS011;45117;50.960;5.500;2023-02-01T02:02:52;39.10;;;8.63;;
59338;SDS011;45117;50.960;5.500;2023-02-01T02:05:20;26.77;;;8.05;;
59338;SDS011;45117;50.960;5.500;2023-02-01T02:07:48;25.65;;;7.57;;
59338;SDS011;45117;50.960;5.500;2023-02-01T02:10:16;21.92;;;8.05;;
59338;SDS011;45117;50.960;5.500;2023-02-01T02:12:44;26.55;;;8.43;;
59338;SDS011;45117;50.960;5.500;2023-02-01T02:15:13;23.95;;;8.15;;
59338;SDS011;45117;50.960;5.500;2023-02-01T02:17:43;21.08;;;7.43;;
59338;SDS011;45117;50.960;5.500;2023-02-01T02:20:22;25.00;;;7.13;;
59338;SDS011;45117;50.960;5.500;2023-02-01T02:26:27;26.48;;;7.90;;
59338;SDS011;45117;50.960;5.500;2023-02-01T02:32:16;28.90;;;8.48;;
59338;SDS011;45117;50.960;5.500;2023-02-01T02:35:06;24.95;;;7.28;;
59338;SDS011;45117;50.960;5.500;2023-02-01T02:37:43;27.52;;;8.02;;
59338;SDS011;45117;50.960;5.500;2023-02-01T02:40:14;29.55;;;8.18;;
59338;SDS011;45117;50.960;5.500;2023-02-01T02:42:49;26.92;;;8.05;;
59338;SDS011;45117;50.960;5.500;2023-02-01T02:45:47;22.40;;;6.80;;
59338;SDS011;45117;50.960;5.500;2023-02-01T02:48:36;25.55;;;7.97;;
59338;SDS011;45117;50.960;5.500;2023-02-01T02:51:09;24.05;;;7.43;;
59338;SDS011;45117;50.960;5.500;2023-02-01T02:54:00;25.05;;;5.85;;
59338;SDS011;45117;50.960;5.500;2023-02-01T02:56:51;17.25;;;5.25;;
59338;SDS011;45117;50.960;5.500;2023-02-01T02:59:37;26.40;;;5.57;;
59338;SDS011;45117;50.960;5.500;2023-02-01T03:02:23;20.95;;;5.28;;
59338;SDS011;45117;50.960;5.500;2023-02-01T03:05:10;17.75;;;4.10;;
59338;SDS011;45117;50.960;5.500;2023-02-01T03:07:48;14.65;;;4.18;;
59338;SDS011;45117;50.960;5.500;2023-02-01T03:10:23;20.38;;;3.97;;
59338;SDS011;45117;50.960;5.500;2023-02-01T03:12:53;19.55;;;4.40;;
59338;SDS011;45117;50.960;5.500;2023-02-01T03:15:22;23.10;;;3.53;;
59338;SDS011;45117;50.960;5.500;2023-02-01T03:17:53;27.40;;;4.05;;
59338;SDS011;45117;50.960;5.500;2023-02-01T03:20:22;17.77;;;3.35;;
59338;SDS011;45117;50.960;5.500;2023-02-01T03:22:51;17.38;;;2.85;;
59338;SDS011;45117;50.960;5.500;2023-02-01T03:25:21;17.73;;;3.72;;
59338;SDS011;45117;50.960;5.500;2023-02-01T03:27:52;22.98;;;3.10;;
59338;SDS011;45117;50.960;5.500;2023-02-01T03:30:21;20.13;;;3.38;;
59338;SDS011;45117;50.960;5.500;2023-02-01T03:32:52;21.48;;;3.13;;
59338;SDS011;45117;50.960;5.500;2023-02-01T03:35:26;20.52;;;3.08;;
59338;SDS011;45117;50.960;5.500;2023-02-01T03:37:59;19.00;;;2.72;;
59338;SDS011;45117;50.960;5.500;2023-02-01T03:40:30;17.23;;;3.20;;
59338;SDS011;45117;50.960;5.500;2023-02-01T03:43:00;19.85;;;2.88;;
59338;SDS011;45117;50.960;5.500;2023-02-01T03:45:31;20.25;;;2.88;;
59338;SDS011;45117;50.960;5.500;2023-02-01T03:48:04;14.82;;;2.50;;
59338;SDS011;45117;50.960;5.500;2023-02-01T03:50:31;12.43;;;2.88;;
59338;SDS011;45117;50.960;5.500;2023-02-01T03:53:03;16.17;;;3.03;;
59338;SDS011;45117;50.960;5.500;2023-02-01T03:55:33;17.92;;;2.90;;
59338;SDS011;45117;50.960;5.500;2023-02-01T03:58:02;17.02;;;2.67;;
59338;SDS011;45117;50.960;5.500;2023-02-01T04:00:33;11.02;;;2.35;;
59338;SDS011;45117;50.960;5.500;2023-02-01T04:03:00;17.58;;;3.45;;
59338;SDS011;45117;50.960;5.500;2023-02-01T04:05:29;13.95;;;2.85;;
59338;SDS011;45117;50.960;5.500;2023-02-01T04:07:56;23.15;;;3.65;;
59338;SDS011;45117;50.960;5.500;2023-02-01T04:10:24;13.95;;;2.72;;
59338;SDS011;45117;50.960;5.500;2023-02-01T04:12:50;18.25;;;2.72;;
59338;SDS011;45117;50.960;5.500;2023-02-01T04:15:17;11.52;;;2.55;;
59338;SDS011;45117;50.960;5.500;2023-02-01T04:17:44;15.10;;;3.05;;
59338;SDS011;45117;50.960;5.500;2023-02-01T04:20:10;13.00;;;2.65;;
59338;SDS011;45117;50.960;5.500;2023-02-01T04:22:37;19.10;;;2.90;;
59338;SDS011;45117;50.960;5.500;2023-02-01T04:25:04;10.68;;;2.50;;
59338;SDS011;45117;50.960;5.500;2023-02-01T04:27:34;17.55;;;2.80;;
59338;SDS011;45117;50.960;5.500;2023-02-01T04:30:01;18.23;;;2.88;;
59338;SDS011;45117;50.960;5.500;2023-02-01T04:32:27;14.15;;;2.72;;
59338;SDS011;45117;50.960;5.500;2023-02-01T04:34:54;16.83;;;2.92;;
59338;SDS011;45117;50.960;5.500;2023-02-01T04:37:20;18.67;;;3.17;;
59338;SDS011;45117;50.960;5.500;2023-02-01T04:39:47;20.58;;;2.50;;
59338;SDS011;45117;50.960;5.500;2023-02-01T04:42:13;19.15;;;2.50;;
59338;SDS011;45117;50.960;5.500;2023-02-01T04:44:41;18.25;;;3.20;;
59338;SDS011;45117;50.960;5.500;2023-02-01T04:47:08;15.32;;;2.60;;
59338;SDS011;45117;50.960;5.500;2023-02-01T04:49:34;18.60;;;2.85;;
59338;SDS011;45117;50.960;5.500;2023-02-01T04:52:01;18.75;;;3.15;;
59338;SDS011;45117;50.960;5.500;2023-02-01T04:54:27;23.27;;;3.42;;
59338;SDS011;45117;50.960;5.500;2023-02-01T04:56:54;17.80;;;2.80;;
59338;SDS011;45117;50.960;5.500;2023-02-01T04:59:20;17.55;;;3.00;;
59338;SDS011;45117;50.960;5.500;2023-02-01T05:01:48;14.52;;;3.00;;
59338;SDS011;45117;50.960;5.500;2023-02-01T05:04:15;23.38;;;3.30;;
59338;SDS011;45117;50.960;5.500;2023-02-01T05:06:43;17.60;;;3.25;;
59338;SDS011;45117;50.960;5.500;2023-02-01T05:09:10;18.35;;;2.92;;
59338;SDS011;45117;50.960;5.500;2023-02-01T05:11:36;20.17;;;2.70;;
59338;SDS011;45117;50.960;5.500;2023-02-01T05:14:20;18.58;;;2.92;;
59338;SDS011;45117;50.960;5.500;2023-02-01T05:16:48;14.13;;;2.75;;
59338;SDS011;45117;50.960;5.500;2023-02-01T05:19:14;14.52;;;2.85;;
59338;SDS011;45117;50.960;5.500;2023-02-01T05:21:41;23.30;;;3.35;;
59338;SDS011;45117;50.960;5.500;2023-02-01T05:24:08;20.52;;;3.33;;
59338;SDS011;45117;50.960;5.500;2023-02-01T05:26:39;19.15;;;2.60;;
59338;SDS011;45117;50.960;5.500;2023-02-01T05:29:07;19.67;;;2.90;;
59338;SDS011;45117;50.960;5.500;2023-02-01T05:31:35;15.32;;;2.92;;
59338;SDS011;45117;50.960;5.500;2023-02-01T05:34:03;19.30;;;2.78;;
59338;SDS011;45117;50.960;5.500;2023-02-01T05:36:30;17.05;;;2.88;;
59338;SDS011;45117;50.960;5.500;2023-02-01T05:38:56;19.42;;;3.03;;
59338;SDS011;45117;50.960;5.500;2023-02-01T05:41:23;18.10;;;2.78;;
59338;SDS011;45117;50.960;5.500;2023-02-01T05:43:50;15.60;;;2.70;;
59338;SDS011;45117;50.960;5.500;2023-02-01T05:46:17;25.35;;;2.97;;
59338;SDS011;45117;50.960;5.500;2023-02-01T05:48:43;16.00;;;2.70;;
59338;SDS011;45117;50.960;5.500;2023-02-01T05:51:11;14.32;;;2.88;;
59338;SDS011;45117;50.960;5.500;2023-02-01T05:53:38;18.20;;;3.13;;
59338;SDS011;45117;50.960;5.500;2023-02-01T05:56:05;20.77;;;2.70;;
59338;SDS011;45117;50.960;5.500;2023-02-01T05:58:32;21.60;;;3.25;;
59338;SDS011;45117;50.960;5.500;2023-02-01T06:00:59;23.70;;;2.95;;
59338;SDS011;45117;50.960;5.500;2023-02-01T06:03:26;17.27;;;2.90;;
59338;SDS011;45117;50.960;5.500;2023-02-01T06:05:52;15.10;;;3.20;;
59338;SDS011;45117;50.960;5.500;2023-02-01T06:08:20;18.92;;;3.20;;
59338;SDS011;45117;50.960;5.500;2023-02-01T06:10:49;20.50;;;3.65;;
59338;SDS011;45117;50.960;5.500;2023-02-01T06:13:15;22.75;;;2.92;;
59338;SDS011;45117;50.960;5.500;2023-02-01T06:15:42;15.80;;;2.30;;
59338;SDS011;45117;50.960;5.500;2023-02-01T06:18:09;19.33;;;3.33;;
59338;SDS011;45117;50.960;5.500;2023-02-01T06:20:35;19.30;;;3.00;;
59338;SDS011;45117;50.960;5.500;2023-02-01T06:23:02;16.08;;;2.85;;
59338;SDS011;45117;50.960;5.500;2023-02-01T06:25:31;19.60;;;2.88;;
59338;SDS011;45117;50.960;5.500;2023-02-01T06:27:59;24.95;;;3.60;;
59338;SDS011;45117;50.960;5.500;2023-02-01T06:30:26;21.10;;;3.30;;
59338;SDS011;45117;50.960;5.500;2023-02-01T06:32:53;18.92;;;3.05;;
59338;SDS011;45117;50.960;5.500;2023-02-01T06:35:19;19.67;;;3.08;;
59338;SDS011;45117;50.960;5.500;2023-02-01T06:37:46;14.45;;;3.10;;
59338;SDS011;45117;50.960;5.500;2023-02-01T06:40:12;20.92;;;3.00;;
59338;SDS011;45117;50.960;5.500;2023-02-01T06:42:40;22.55;;;3.45;;
59338;SDS011;45117;50.960;5.500;2023-02-01T06:45:07;17.90;;;2.65;;
59338;SDS011;45117;50.960;5.500;2023-02-01T06:47:34;14.55;;;2.70;;
59338;SDS011;45117;50.960;5.500;2023-02-01T06:50:01;18.92;;;3.17;;
59338;SDS011;45117;50.960;5.500;2023-02-01T06:52:27;20.25;;;3.17;;
59338;SDS011;45117;50.960;5.500;2023-02-01T06:54:53;14.80;;;2.83;;
59338;SDS011;45117;50.960;5.500;2023-02-01T06:57:20;19.70;;;3.22;;
59338;SDS011;45117;50.960;5.500;2023-02-01T06:59:48;19.55;;;3.20;;
59338;SDS011;45117;50.960;5.500;2023-02-01T07:02:15;20.75;;;3.30;;
59338;SDS011;45117;50.960;5.500;2023-02-01T07:04:41;19.52;;;3.30;;
59338;SDS011;45117;50.960;5.500;2023-02-01T07:07:08;19.30;;;2.83;;
59338;SDS011;45117;50.960;5.500;2023-02-01T07:09:34;19.70;;;3.15;;
59338;SDS011;45117;50.960;5.500;2023-02-01T07:12:00;17.05;;;2.83;;
59338;SDS011;45117;50.960;5.500;2023-02-01T07:14:27;29.27;;;3.20;;
59338;SDS011;45117;50.960;5.500;2023-02-01T07:16:55;16.83;;;3.13;;
59338;SDS011;45117;50.960;5.500;2023-02-01T07:19:21;19.15;;;2.85;;
59338;SDS011;45117;50.960;5.500;2023-02-01T07:21:48;19.15;;;3.05;;
59338;SDS011;45117;50.960;5.500;2023-02-01T07:24:14;15.85;;;2.80;;
59338;SDS011;45117;50.960;5.500;2023-02-01T07:26:41;15.13;;;2.83;;
59338;SDS011;45117;50.960;5.500;2023-02-01T07:29:07;19.92;;;3.35;;
59338;SDS011;45117;50.960;5.500;2023-02-01T07:31:34;23.38;;;3.60;;
59338;SDS011;45117;50.960;5.500;2023-02-01T07:34:01;20.10;;;3.15;;
59338;SDS011;45117;50.960;5.500;2023-02-01T07:36:28;23.02;;;4.20;;
59338;SDS011;45117;50.960;5.500;2023-02-01T07:38:54;23.92;;;3.20;;
59338;SDS011;45117;50.960;5.500;2023-02-01T07:41:21;21.92;;;3.55;;
59338;SDS011;45117;50.960;5.500;2023-02-01T07:43:47;23.38;;;3.63;;
59338;SDS011;45117;50.960;5.500;2023-02-01T07:46:15;17.15;;;3.30;;
59338;SDS011;45117;50.960;5.500;2023-02-01T07:48:42;23.30;;;3.15;;
59338;SDS011;45117;50.960;5.500;2023-02-01T07:51:10;19.25;;;2.90;;
59338;SDS011;45117;50.960;5.500;2023-02-01T07:53:39;22.02;;;3.25;;
59338;SDS011;45117;50.960;5.500;2023-02-01T07:56:09;24.52;;;3.60;;
59338;SDS011;45117;50.960;5.500;2023-02-01T07:58:37;16.60;;;3.13;;
59338;SDS011;45117;50.960;5.500;2023-02-01T08:01:04;19.15;;;3.33;;
59338;SDS011;45117;50.960;5.500;2023-02-01T08:03:45;18.80;;;3.00;;
59338;SDS011;45117;50.960;5.500;2023-02-01T08:06:13;19.60;;;3.20;;
59338;SDS011;45117;50.960;5.500;2023-02-01T08:08:40;22.27;;;3.17;;
59338;SDS011;45117;50.960;5.500;2023-02-01T08:11:07;26.88;;;3.42;;
59338;SDS011;45117;50.960;5.500;2023-02-01T08:13:34;22.50;;;3.22;;
59338;SDS011;45117;50.960;5.500;2023-02-01T08:16:01;15.98;;;3.15;;
59338;SDS011;45117;50.960;5.500;2023-02-01T08:18:28;19.38;;;2.70;;
59338;SDS011;45117;50.960;5.500;2023-02-01T08:20:55;20.60;;;3.33;;
59338;SDS011;45117;50.960;5.500;2023-02-01T08:23:23;20.42;;;3.10;;
59338;SDS011;45117;50.960;5.500;2023-02-01T08:25:49;15.23;;;3.10;;
59338;SDS011;45117;50.960;5.500;2023-02-01T08:28:16;20.40;;;3.20;;
59338;SDS011;45117;50.960;5.500;2023-02-01T08:30:43;17.20;;;3.05;;
59338;SDS011;45117;50.960;5.500;2023-02-01T08:33:09;22.63;;;3.67;;
59338;SDS011;45117;50.960;5.500;2023-02-01T08:35:36;19.40;;;3.13;;
59338;SDS011;45117;50.960;5.500;2023-02-01T08:38:04;18.15;;;3.10;;
59338;SDS011;45117;50.960;5.500;2023-02-01T08:40:32;13.48;;;2.80;;
59338;SDS011;45117;50.960;5.500;2023-02-01T08:42:59;17.83;;;3.05;;
59338;SDS011;45117;50.960;5.500;2023-02-01T08:45:26;16.73;;;2.97;;
59338;SDS011;45117;50.960;5.500;2023-02-01T08:47:54;16.92;;;3.13;;
59338;SDS011;45117;50.960;5.500;2023-02-01T08:50:22;18.25;;;3.00;;
59338;SDS011;45117;50.960;5.500;2023-02-01T08:52:49;23.80;;;3.45;;
59338;SDS011;45117;50.960;5.500;2023-02-01T08:55:16;21.27;;;3.20;;
59338;SDS011;45117;50.960;5.500;2023-02-01T08:57:44;19.90;;;3.30;;
59338;SDS011;45117;50.960;5.500;2023-02-01T09:00:12;18.58;;;3.15;;
59338;SDS011;45117;50.960;5.500;2023-02-01T09:02:40;23.08;;;3.25;;
59338;SDS011;45117;50.960;5.500;2023-02-01T09:05:07;21.75;;;4.00;;
59338;SDS011;45117;50.960;5.500;2023-02-01T09:07:34;18.00;;;3.30;;
59338;SDS011;45117;50.960;5.500;2023-02-01T09:10:01;20.58;;;3.15;;
59338;SDS011;45117;50.960;5.500;2023-02-01T09:12:28;23.48;;;3.42;;
59338;SDS011;45117;50.960;5.500;2023-02-01T09:14:56;19.63;;;2.72;;
59338;SDS011;45117;50.960;5.500;2023-02-01T09:17:24;20.90;;;3.20;;
59338;SDS011;45117;50.960;5.500;2023-02-01T09:19:51;21.50;;;3.42;;
59338;SDS011;45117;50.960;5.500;2023-02-01T09:22:17;18.95;;;3.40;;
59338;SDS011;45117;50.960;5.500;2023-02-01T09:24:44;18.08;;;2.97;;
59338;SDS011;45117;50.960;5.500;2023-02-01T09:27:10;17.85;;;2.65;;
59338;SDS011;45117;50.960;5.500;2023-02-01T09:29:37;21.52;;;3.10;;
59338;SDS011;45117;50.960;5.500;2023-02-01T09:32:05;18.05;;;3.08;;
59338;SDS011;45117;50.960;5.500;2023-02-01T09:34:32;18.08;;;3.30;;
59338;SDS011;45117;50.960;5.500;2023-02-01T09:36:59;17.65;;;2.97;;
59338;SDS011;45117;50.960;5.500;2023-02-01T09:39:25;15.98;;;3.53;;
59338;SDS011;45117;50.960;5.500;2023-02-01T09:41:56;19.42;;;3.08;;
59338;SDS011;45117;50.960;5.500;2023-02-01T09:44:35;21.15;;;3.42;;
59338;SDS011;45117;50.960;5.500;2023-02-01T09:47:14;24.05;;;3.38;;
59338;SDS011;45117;50.960;5.500;2023-02-01T09:49:45;21.48;;;3.42;;
59338;SDS011;45117;50.960;5.500;2023-02-01T09:52:19;19.25;;;3.60;;
59338;SDS011;45117;50.960;5.500;2023-02-01T09:54:53;17.48;;;3.17;;
59338;SDS011;45117;50.960;5.500;2023-02-01T09:57:26;17.02;;;3.17;;
59338;SDS011;45117;50.960;5.500;2023-02-01T10:00:03;15.73;;;3.15;;
59338;SDS011;45117;50.960;5.500;2023-02-01T10:02:34;20.08;;;3.30;;
59338;SDS011;45117;50.960;5.500;2023-02-01T10:05:04;21.88;;;3.50;;
59338;SDS011;45117;50.960;5.500;2023-02-01T10:07:33;20.30;;;3.08;;
59338;SDS011;45117;50.960;5.500;2023-02-01T10:10:08;18.23;;;2.90;;
59338;SDS011;45117;50.960;5.500;2023-02-01T10:12:44;16.95;;;3.10;;
59338;SDS011;45117;50.960;5.500;2023-02-01T10:15:22;17.13;;;3.40;;
59338;SDS011;45117;50.960;5.500;2023-02-01T10:18:05;21.98;;;3.08;;
59338;SDS011;45117;50.960;5.500;2023-02-01T10:20:43;18.30;;;3.38;;
59338;SDS011;45117;50.960;5.500;2023-02-01T10:23:23;17.25;;;3.20;;
59338;SDS011;45117;50.960;5.500;2023-02-01T10:26:01;19.55;;;3.05;;
59338;SDS011;45117;50.960;5.500;2023-02-01T10:28:38;19.55;;;3.55;;
59338;SDS011;45117;50.960;5.500;2023-02-01T10:31:06;15.07;;;3.30;;
59338;SDS011;45117;50.960;5.500;2023-02-01T10:33:37;14.63;;;3.22;;
59338;SDS011;45117;50.960;5.500;2023-02-01T10:36:10;18.50;;;2.90;;
59338;SDS011;45117;50.960;5.500;2023-02-01T10:38:42;18.20;;;3.25;;
59338;SDS011;45117;50.960;5.500;2023-02-01T10:41:11;13.70;;;3.13;;
59338;SDS011;45117;50.960;5.500;2023-02-01T10:43:39;19.30;;;3.30;;
59338;SDS011;45117;50.960;5.500;2023-02-01T10:46:06;15.40;;;3.33;;
59338;SDS011;45117;50.960;5.500;2023-02-01T10:48:34;19.80;;;3.40;;
59338;SDS011;45117;50.960;5.500;2023-02-01T10:51:05;13.52;;;2.95;;
59338;SDS011;45117;50.960;5.500;2023-02-01T10:53:33;20.45;;;3.45;;
59338;SDS011;45117;50.960;5.500;2023-02-01T10:56:05;17.30;;;2.72;;
59338;SDS011;45117;50.960;5.500;2023-02-01T10:58:32;17.05;;;2.90;;
59338;SDS011;45117;50.960;5.500;2023-02-01T11:01:02;18.35;;;2.92;;
59338;SDS011;45117;50.960;5.500;2023-02-01T11:03:32;13.57;;;2.53;;
59338;SDS011;45117;50.960;5.500;2023-02-01T11:06:03;18.23;;;2.47;;
59338;SDS011;45117;50.960;5.500;2023-02-01T11:08:41;17.92;;;3.88;;
59338;SDS011;45117;50.960;5.500;2023-02-01T11:11:09;16.35;;;3.10;;
59338;SDS011;45117;50.960;5.500;2023-02-01T11:13:37;13.93;;;2.75;;
59338;SDS011;45117;50.960;5.500;2023-02-01T11:16:05;14.82;;;2.80;;
59338;SDS011;45117;50.960;5.500;2023-02-01T11:18:35;14.93;;;2.60;;
59338;SDS011;45117;50.960;5.500;2023-02-01T11:21:05;13.10;;;2.65;;
59338;SDS011;45117;50.960;5.500;2023-02-01T11:23:32;10.13;;;2.35;;
59338;SDS011;45117;50.960;5.500;2023-02-01T11:26:02;21.77;;;2.80;;
59338;SDS011;45117;50.960;5.500;2023-02-01T11:28:37;13.95;;;2.88;;
59338;SDS011;45117;50.960;5.500;2023-02-01T11:31:07;20.30;;;2.88;;
59338;SDS011;45117;50.960;5.500;2023-02-01T11:33:36;13.10;;;2.22;;
59338;SDS011;45117;50.960;5.500;2023-02-01T11:36:12;13.50;;;2.53;;
59338;SDS011;45117;50.960;5.500;2023-02-01T11:38:45;13.23;;;2.83;;
59338;SDS011;45117;50.960;5.500;2023-02-01T11:41:14;16.30;;;2.53;;
59338;SDS011;45117;50.960;5.500;2023-02-01T11:43:50;11.73;;;2.33;;
59338;SDS011;45117;50.960;5.500;2023-02-01T11:46:22;13.10;;;2.70;;
59338;SDS011;45117;50.960;5.500;2023-02-01T11:48:53;15.10;;;2.58;;
59338;SDS011;45117;50.960;5.500;2023-02-01T11:51:25;16.35;;;2.70;;
59338;SDS011;45117;50.960;5.500;2023-02-01T11:54:10;13.88;;;2.53;;
59338;SDS011;45117;50.960;5.500;2023-02-01T11:56:51;11.15;;;2.53;;
59338;SDS011;45117;50.960;5.500;2023-02-01T11:59:52;13.15;;;2.45;;
59338;SDS011;45117;50.960;5.500;2023-02-01T12:05:25;12.55;;;2.40;;
59338;SDS011;45117;50.960;5.500;2023-02-01T12:08:09;11.25;;;2.33;;
59338;SDS011;45117;50.960;5.500;2023-02-01T12:11:12;11.55;;;2.33;;
59338;SDS011;45117;50.960;5.500;2023-02-01T12:13:54;14.43;;;2.03;;
59338;SDS011;45117;50.960;5.500;2023-02-01T12:16:35;15.90;;;1.90;;
59338;SDS011;45117;50.960;5.500;2023-02-01T12:19:11;12.90;;;2.20;;
59338;SDS011;45117;50.960;5.500;2023-02-01T12:21:52;13.43;;;2.00;;
59338;SDS011;45117;50.960;5.500;2023-02-01T12:24:33;12.25;;;2.55;;
59338;SDS011;45117;50.960;5.500;2023-02-01T12:27:16;13.02;;;2.55;;
59338;SDS011;45117;50.960;5.500;2023-02-01T12:30:12;14.52;;;1.92;;
59338;SDS011;45117;50.960;5.500;2023-02-01T12:33:02;14.35;;;2.33;;
59338;SDS011;45117;50.960;5.500;2023-02-01T12:35:38;14.82;;;2.40;;
59338;SDS011;45117;50.960;5.500;2023-02-01T12:38:23;14.48;;;2.28;;
59338;SDS011;45117;50.960;5.500;2023-02-01T12:41:08;12.60;;;1.92;;
59338;SDS011;45117;50.960;5.500;2023-02-01T12:43:46;10.60;;;2.17;;
59338;SDS011;45117;50.960;5.500;2023-02-01T12:46:19;19.55;;;2.50;;
59338;SDS011;45117;50.960;5.500;2023-02-01T12:48:50;10.88;;;2.22;;
59338;SDS011;45117;50.960;5.500;2023-02-01T12:51:23;15.60;;;2.25;;
59338;SDS011;45117;50.960;5.500;2023-02-01T12:53:54;16.98;;;3.28;;
59338;SDS011;45117;50.960;5.500;2023-02-01T12:56:29;17.85;;;4.20;;
59338;SDS011;45117;50.960;5.500;2023-02-01T12:59:01;15.48;;;3.00;;
59338;SDS011;45117;50.960;5.500;2023-02-01T13:01:31;16.58;;;3.25;;
59338;SDS011;45117;50.960;5.500;2023-02-01T13:04:02;10.45;;;2.88;;
59338;SDS011;45117;50.960;5.500;2023-02-01T13:06:35;11.25;;;2.30;;
59338;SDS011;45117;50.960;5.500;2023-02-01T13:09:09;16.35;;;3.83;;
59338;SDS011;45117;50.960;5.500;2023-02-01T13:11:43;10.95;;;2.13;;
59338;SDS011;45117;50.960;5.500;2023-02-01T13:14:15;10.98;;;1.98;;
59338;SDS011;45117;50.960;5.500;2023-02-01T13:16:49;16.60;;;1.90;;
59338;SDS011;45117;50.960;5.500;2023-02-01T13:19:18;12.35;;;2.25;;
59338;SDS011;45117;50.960;5.500;2023-02-01T13:21:50;16.15;;;1.95;;
59338;SDS011;45117;50.960;5.500;2023-02-01T13:24:26;10.75;;;2.20;;
59338;SDS011;45117;50.960;5.500;2023-02-01T13:26:59;11.18;;;2.45;;
59338;SDS011;45117;50.960;5.500;2023-02-01T13:29:26;15.23;;;2.33;;
59338;SDS011;45117;50.960;5.500;2023-02-01T13:32:02;8.82;;;1.67;;
59338;SDS011;45117;50.960;5.500;2023-02-01T13:34:58;14.38;;;2.42;;
59338;SDS011;45117;50.960;5.500;2023-02-01T13:37:44;12.63;;;2.30;;
59338;SDS011;45117;50.960;5.500;2023-02-01T13:40:28;13.15;;;2.20;;
59338;SDS011;45117;50.960;5.500;2023-02-01T13:43:04;13.38;;;2.30;;
59338;SDS011;45117;50.960;5.500;2023-02-01T13:45:34;15.27;;;2.40;;
59338;SDS011;45117;50.960;5.500;2023-02-01T13:48:14;13.77;;;2.67;;
59338;SDS011;45117;50.960;5.500;2023-02-01T13:50:49;14.23;;;2.28;;
59338;SDS011;45117;50.960;5.500;2023-02-01T13:53:18;18.15;;;2.10;;
59338;SDS011;45117;50.960;5.500;2023-02-01T13:55:54;11.70;;;2.08;;
59338;SDS011;45117;50.960;5.500;2023-02-01T13:58:29;14.65;;;1.77;;
59338;SDS011;45117;50.960;5.500;2023-02-01T14:04:00;13.77;;;1.95;;
59338;SDS011;45117;50.960;5.500;2023-02-01T14:06:38;11.73;;;1.83;;
59338;SDS011;45117;50.960;5.500;2023-02-01T14:09:15;14.02;;;2.05;;
59338;SDS011;45117;50.960;5.500;2023-02-01T14:11:48;9.52;;;1.67;;
59338;SDS011;45117;50.960;5.500;2023-02-01T14:23:29;16.08;;;2.42;;
59338;SDS011;45117;50.960;5.500;2023-02-01T14:26:03;18.55;;;1.83;;
59338;SDS011;45117;50.960;5.500;2023-02-01T14:28:34;12.20;;;1.90;;
59338;SDS011;45117;50.960;5.500;2023-02-01T14:31:13;11.80;;;2.20;;
59338;SDS011;45117;50.960;5.500;2023-02-01T14:33:42;13.38;;;2.20;;
59338;SDS011;45117;50.960;5.500;2023-02-01T14:36:09;11.75;;;2.50;;
59338;SDS011;45117;50.960;5.500;2023-02-01T14:38:38;10.65;;;1.92;;
59338;SDS011;45117;50.960;5.500;2023-02-01T14:41:13;16.63;;;2.00;;
59338;SDS011;45117;50.960;5.500;2023-02-01T14:44:22;12.52;;;1.90;;
59338;SDS011;45117;50.960;5.500;2023-02-01T14:47:08;17.75;;;2.40;;
59338;SDS011;45117;50.960;5.500;2023-02-01T14:49:37;13.43;;;3.25;;
59338;SDS011;45117;50.960;5.500;2023-02-01T14:52:14;14.27;;;2.28;;
59338;SDS011;45117;50.960;5.500;2023-02-01T14:54:44;11.45;;;2.33;;
59338;SDS011;45117;50.960;5.500;2023-02-01T14:57:14;15.15;;;2.92;;
59338;SDS011;45117;50.960;5.500;2023-02-01T14:59:42;16.60;;;3.03;;
59338;SDS011;45117;50.960;5.500;2023-02-01T15:02:16;15.20;;;4.70;;
59338;SDS011;45117;50.960;5.500;2023-02-01T15:04:46;10.48;;;2.88;;
59338;SDS011;45117;50.960;5.500;2023-02-01T15:07:20;13.80;;;2.95;;
59338;SDS011;45117;50.960;5.500;2023-02-01T15:09:49;12.68;;;2.33;;
59338;SDS011;45117;50.960;5.500;2023-02-01T15:12:17;14.40;;;2.92;;
59338;SDS011;45117;50.960;5.500;2023-02-01T15:15:02;13.85;;;1.88;;
59338;SDS011;45117;50.960;5.500;2023-02-01T15:17:37;13.10;;;1.95;;